ENHD/HAU METAR and TAF weather

Enter ICAO airport designator
Station Type Date Time Source
ENHD METAR 2022/06/27 07:20 UTC NOAA

ENHD 270720Z 13010KT CAVOK 15/12 Q1015


Station Type Date Time Source
ENHD Decoded METAR 2022/06/27 07:20 UTC NOAA

Haugesund / Karmoy, Norway (ENHD) 59-21N 005-13E 24M
Jun 27, 2022 - 03:20 AM EDT / 2022.06.27 0720 UTC
Wind: from the SE (130 degrees) at 12 MPH (10 KT):0
Visibility: greater than 7 mile(s):0
Temperature: 59 F (15 C)
Dew Point: 53 F (12 C)
Relative Humidity: 82%
Pressure (altimeter): 29.97 in. Hg (1015 hPa)
ob: ENHD 270720Z 13010KT CAVOK 15/12 Q1015
cycle: 7

Station Type Date Time Source
ENHD TAF UTC NOAA

Error!

Example: see airport list